createdAt,value
2019-03-27T00:00:22.942Z,25.6
2019-03-27T00:01:12.822Z,25.4
2019-03-27T00:02:03.061Z,25.4
2019-03-27T00:02:53.476Z,25.3
2019-03-27T00:03:44.027Z,25.2
2019-03-27T00:04:33.749Z,25.1
2019-03-27T00:05:23.341Z,25.1
2019-03-27T00:06:12.864Z,25
2019-03-27T00:07:03.963Z,24.9
2019-03-27T00:07:52.916Z,24.6
2019-03-27T00:08:43.606Z,24.2
2019-03-27T00:09:33.441Z,24.3
2019-03-27T00:10:24.224Z,24.8
2019-03-27T00:11:17.607Z,24.9
2019-03-27T00:12:04.398Z,25.2
2019-03-27T00:12:54.760Z,25.4
2019-03-27T00:13:45.128Z,25.7
2019-03-27T00:14:34.063Z,25.9
2019-03-27T00:15:24.828Z,26.3
2019-03-27T00:16:14.058Z,26.6
2019-03-27T00:17:04.440Z,26.9
2019-03-27T00:17:54.775Z,27.1
2019-03-27T00:18:45.333Z,27.4
2019-03-27T00:19:34.993Z,27.6
2019-03-27T00:20:24.740Z,27.9
2019-03-27T00:21:14.868Z,28.1
2019-03-27T00:22:05.399Z,28.3
2019-03-27T00:22:55.216Z,28.4
2019-03-27T00:23:45.732Z,28.6
2019-03-27T00:24:35.602Z,28.5
2019-03-27T00:25:25.332Z,28.4
2019-03-27T00:26:14.810Z,28.3
2019-03-27T00:27:05.967Z,28.2
2019-03-27T00:27:55.739Z,28.1
2019-03-27T00:28:46.115Z,28
2019-03-27T00:29:36.022Z,27.9
2019-03-27T00:30:25.978Z,27.8
2019-03-27T00:31:18.936Z,27.7
2019-03-27T00:32:05.609Z,27.5
2019-03-27T00:32:56.370Z,27.4
2019-03-27T00:33:46.142Z,27.3
2019-03-27T00:34:35.945Z,27.3
2019-03-27T00:35:25.469Z,27.1
2019-03-27T00:36:15.789Z,27.1
2019-03-27T00:37:05.109Z,27
2019-03-27T00:37:55.909Z,26.9
2019-03-27T00:38:46.802Z,26.8
2019-03-27T00:39:35.497Z,26.7
2019-03-27T00:40:25.798Z,26.6
2019-03-27T00:41:16.821Z,26.6
2019-03-27T00:42:05.985Z,26.4
2019-03-27T00:42:56.589Z,26.4
2019-03-27T00:43:45.855Z,26.3
2019-03-27T00:44:36.399Z,26.3
2019-03-27T00:45:36.206Z,26.2
2019-03-27T00:46:16.506Z,26.1
2019-03-27T00:47:06.576Z,25.9
2019-03-27T00:47:57.523Z,25.9
2019-03-27T00:48:46.974Z,25.8
2019-03-27T00:49:36.826Z,25.7
2019-03-27T00:50:26.801Z,25.6
2019-03-27T00:51:17.844Z,25.6
2019-03-27T00:52:07.831Z,25.4
2019-03-27T00:52:57.162Z,25.4
2019-03-27T00:53:47.336Z,25.3
2019-03-27T00:54:36.836Z,25.2
2019-03-27T00:55:26.970Z,25.1
2019-03-27T00:56:17.333Z,25.1
2019-03-27T00:57:08.230Z,25
2019-03-27T00:57:57.670Z,24.9
2019-03-27T00:58:47.493Z,24.6
2019-03-27T00:59:37.670Z,24.2
2019-03-27T01:00:27.968Z,24.3
2019-03-27T01:01:17.918Z,24.9
2019-03-27T01:02:07.705Z,25
2019-03-27T01:02:58.011Z,25.2
2019-03-27T01:03:48.115Z,25.5
2019-03-27T01:04:37.644Z,25.7
2019-03-27T01:05:28.023Z,26.1
2019-03-27T01:06:18.289Z,26.4
2019-03-27T01:07:08.948Z,26.6
2019-03-27T01:07:57.560Z,26.9
2019-03-27T01:08:49.043Z,27.2
2019-03-27T01:09:38.242Z,27.4
2019-03-27T01:10:28.890Z,27.7
2019-03-27T01:11:19.165Z,27.9
2019-03-27T01:12:08.147Z,28.1
2019-03-27T01:12:58.427Z,28.3
2019-03-27T01:13:48.847Z,28.5
2019-03-27T01:14:39.178Z,28.6
2019-03-27T01:15:43.352Z,28.6
2019-03-27T01:16:19.077Z,28.4
2019-03-27T01:17:07.985Z,28.4
2019-03-27T01:17:59.332Z,28.3
2019-03-27T01:18:49.130Z,28.1
2019-03-27T01:19:39.272Z,28
2019-03-27T01:20:28.999Z,27.9
2019-03-27T01:21:19.364Z,27.8
2019-03-27T01:22:09.154Z,27.7
2019-03-27T01:22:59.451Z,27.6
2019-03-27T01:23:49.615Z,27.4
2019-03-27T01:24:39.289Z,27.4
2019-03-27T01:25:29.659Z,27.3
2019-03-27T01:26:20.243Z,27.1
2019-03-27T01:27:10.094Z,27.1
2019-03-27T01:27:59.776Z,26.9
2019-03-27T01:28:50.171Z,26.9
2019-03-27T01:29:40.258Z,26.8
2019-03-27T01:30:30.321Z,26.7
2019-03-27T01:31:20.036Z,26.6
2019-03-27T01:32:10.134Z,26.6
2019-03-27T01:33:00.731Z,26.4
2019-03-27T01:33:49.941Z,26.4
2019-03-27T01:34:40.693Z,26.3
2019-03-27T01:35:30.938Z,26.2
2019-03-27T01:36:20.486Z,26.1
2019-03-27T01:37:11.005Z,26
2019-03-27T01:37:59.973Z,25.9
2019-03-27T01:38:49.475Z,25.9
2019-03-27T01:39:40.693Z,25.8
2019-03-27T01:40:30.555Z,25.7
2019-03-27T01:41:20.643Z,25.6
2019-03-27T01:42:11.111Z,25.5
2019-03-27T01:43:01.163Z,25.4
2019-03-27T01:43:50.493Z,25.3
2019-03-27T01:44:41.553Z,25.3
2019-03-27T01:45:30.568Z,25.1
2019-03-27T01:46:20.673Z,25.1
2019-03-27T01:47:10.980Z,25
2019-03-27T01:48:01.530Z,24.9
2019-03-27T01:48:51.280Z,24.9
2019-03-27T01:49:41.380Z,24.4
2019-03-27T01:50:30.625Z,24.2
2019-03-27T01:51:21.546Z,24.4
2019-03-27T01:52:15.248Z,24.9
2019-03-27T01:53:01.097Z,25.1
2019-03-27T01:53:51.960Z,25.3
2019-03-27T01:54:42.310Z,25.6
2019-03-27T01:55:31.825Z,25.9
2019-03-27T01:56:21.669Z,26.2
2019-03-27T01:57:11.696Z,26.5
2019-03-27T01:58:01.688Z,26.8
2019-03-27T01:58:52.312Z,27.1
2019-03-27T01:59:42.434Z,27.3
2019-03-27T02:00:31.875Z,27.6
2019-03-27T02:01:21.967Z,27.8
2019-03-27T02:02:12.614Z,28
2019-03-27T02:03:02.111Z,28.2
2019-03-27T02:03:52.645Z,28.4
2019-03-27T02:04:42.789Z,28.6
2019-03-27T02:05:32.537Z,28.6
2019-03-27T02:06:22.559Z,28.4
2019-03-27T02:07:12.939Z,28.4
2019-03-27T02:08:03.333Z,28.3
2019-03-27T02:08:53.112Z,28.2
2019-03-27T02:09:42.002Z,28.1
2019-03-27T02:10:32.956Z,27.9
2019-03-27T02:12:12.996Z,27.7
2019-03-27T02:13:03.049Z,27.6
2019-03-27T02:13:53.491Z,27.5
2019-03-27T02:14:43.234Z,27.4
2019-03-27T02:15:32.718Z,27.3
2019-03-27T02:16:22.734Z,27.2
2019-03-27T02:17:13.940Z,27.1
2019-03-27T02:18:03.419Z,27
2019-03-27T02:18:53.553Z,26.9
2019-03-27T02:19:43.313Z,26.8
2019-03-27T02:20:33.313Z,26.8
2019-03-27T02:21:23.118Z,26.6
2019-03-27T02:22:13.779Z,26.6
2019-03-27T02:23:03.803Z,26.4
2019-03-27T02:23:54.416Z,26.4
2019-03-27T02:24:44.181Z,26.3
2019-03-27T02:25:33.693Z,26.2
2019-03-27T02:26:24.186Z,26.1
2019-03-27T02:27:14.470Z,26.1
2019-03-27T02:28:03.352Z,25.9
2019-03-27T02:28:53.728Z,25.9
2019-03-27T02:29:44.577Z,25.8
2019-03-27T02:30:34.623Z,25.7
2019-03-27T02:31:24.806Z,25.6
2019-03-27T02:32:15.019Z,25.5
2019-03-27T02:33:05.311Z,25.4
2019-03-27T02:33:54.591Z,25.4
2019-03-27T02:34:43.438Z,25.3
2019-03-27T02:35:34.507Z,25.2
2019-03-27T02:36:24.391Z,25.1
2019-03-27T02:37:14.975Z,25
2019-03-27T02:38:04.793Z,24.9
2019-03-27T02:38:55.527Z,24.8
2019-03-27T02:39:45.193Z,24.4
2019-03-27T02:40:35.821Z,24.2
2019-03-27T02:41:24.837Z,24.4
2019-03-27T02:42:14.307Z,24.9
2019-03-27T02:43:05.146Z,25.1
2019-03-27T02:43:55.512Z,25.3
2019-03-27T02:44:45.591Z,25.6
2019-03-27T02:45:35.808Z,25.8
2019-03-27T02:46:34.449Z,26.1
2019-03-27T02:47:15.695Z,26.5
2019-03-27T02:48:06.270Z,26.8
2019-03-27T02:48:55.022Z,27
2019-03-27T02:49:46.397Z,27.3
2019-03-27T02:50:36.075Z,27.5
2019-03-27T02:51:25.969Z,27.7
2019-03-27T02:52:16.120Z,27.9
2019-03-27T02:53:06.769Z,28.1
2019-03-27T02:53:56.569Z,28.3
2019-03-27T02:54:45.941Z,28.5
2019-03-27T02:55:36.529Z,28.6
2019-03-27T02:56:26.916Z,28.5
2019-03-27T02:57:16.096Z,28.4
2019-03-27T02:58:05.972Z,28.3
2019-03-27T02:58:56.482Z,28.2
2019-03-27T02:59:46.532Z,28.1
2019-03-27T03:00:37.132Z,27.9
2019-03-27T03:02:17.074Z,27.7
2019-03-27T03:03:05.749Z,27.6
2019-03-27T03:03:57.194Z,27.5
2019-03-27T03:07:27.363Z,27.1
2019-03-27T03:08:17.499Z,27
2019-03-27T03:09:07.577Z,26.9
2019-03-27T03:09:58.652Z,26.8
2019-03-27T03:10:52.798Z,26.8
2019-03-27T03:11:38.300Z,26.6
2019-03-27T03:12:28.397Z,26.5
2019-03-27T03:13:18.623Z,26.4
2019-03-27T03:14:08.157Z,26.4
2019-03-27T03:14:58.228Z,26.3
2019-03-27T03:15:48.256Z,26.2
2019-03-27T03:16:52.468Z,26.1
2019-03-27T03:17:28.772Z,26
2019-03-27T03:18:18.998Z,25.9
2019-03-27T03:19:08.568Z,25.9
2019-03-27T03:19:58.210Z,25.8
2019-03-27T03:20:48.580Z,25.7
2019-03-27T03:21:38.058Z,25.6
2019-03-27T03:22:28.266Z,25.5
2019-03-27T03:23:19.326Z,25.4
2019-03-27T03:24:09.081Z,25.4
2019-03-27T03:24:57.612Z,25.3
2019-03-27T03:25:48.763Z,25.2
2019-03-27T03:26:39.435Z,25.1
2019-03-27T03:27:29.448Z,25
2019-03-27T03:28:19.317Z,24.9
2019-03-27T03:29:08.971Z,24.8
2019-03-27T03:30:00.001Z,24.4
2019-03-27T03:30:50.195Z,24.3
2019-03-27T03:31:39.535Z,24.6
2019-03-27T03:32:30.013Z,25
2019-03-27T03:33:20.049Z,25.1
2019-03-27T03:34:10.794Z,25.4
2019-03-27T03:34:59.857Z,25.6
2019-03-27T03:35:49.977Z,25.9
2019-03-27T03:36:40.146Z,26.2
2019-03-27T03:37:30.110Z,26.4
2019-03-27T03:38:19.992Z,26.6
2019-03-27T03:39:10.197Z,26.8
2019-03-27T03:39:59.801Z,26.3
2019-03-27T03:40:50.330Z,25.8
2019-03-27T03:41:40.362Z,25.8
2019-03-27T03:42:29.950Z,25.9
2019-03-27T03:43:20.509Z,26.1
2019-03-27T03:44:10.022Z,26.3
2019-03-27T03:45:00.972Z,26.5
2019-03-27T03:45:50.113Z,26.7
2019-03-27T03:46:39.641Z,26.9
2019-03-27T03:47:31.075Z,27.2
2019-03-27T03:48:20.396Z,27.4
2019-03-27T03:49:10.367Z,27.6
2019-03-27T03:50:01.214Z,27.9
2019-03-27T03:51:06.442Z,28.1
2019-03-27T03:51:40.805Z,28.3
2019-03-27T03:52:30.631Z,28.4
2019-03-27T03:53:21.217Z,28.6
2019-03-27T03:54:11.096Z,28.4
2019-03-27T03:55:02.051Z,28.4
2019-03-27T03:55:51.667Z,28.3
2019-03-27T03:56:40.914Z,28.1
2019-03-27T03:57:31.568Z,28
2019-03-27T03:58:21.816Z,27.9
2019-03-27T04:00:01.571Z,27.7
2019-03-27T04:00:51.635Z,27.6
2019-03-27T04:01:42.249Z,27.5
2019-03-27T04:02:31.226Z,27.4
2019-03-27T04:03:22.040Z,26.4
2019-03-27T04:04:12.068Z,25.9
2019-03-27T04:05:02.109Z,25.6
2019-03-27T04:05:51.983Z,25.3
2019-03-27T04:06:42.226Z,25.2
2019-03-27T04:07:32.065Z,25.1
2019-03-27T04:08:22.410Z,24.9
2019-03-27T04:09:12.080Z,24.9
2019-03-27T04:10:03.098Z,24.8
2019-03-27T04:10:52.815Z,24.7
2019-03-27T04:11:42.325Z,24.6
2019-03-27T04:12:31.452Z,24.5
2019-03-27T04:13:22.566Z,24.5
2019-03-27T04:14:12.502Z,24.6
2019-03-27T04:15:02.662Z,24.5
2019-03-27T04:15:52.883Z,24.4
2019-03-27T04:16:42.458Z,24.4
2019-03-27T04:17:32.837Z,24.3
2019-03-27T04:18:23.082Z,24.2
2019-03-27T04:19:11.429Z,24.1
2019-03-27T04:20:02.939Z,24
2019-03-27T04:20:53.284Z,23.9
2019-03-27T04:21:43.420Z,23.8
2019-03-27T04:22:33.105Z,23.8
2019-03-27T04:23:23.450Z,23.7
2019-03-27T04:24:12.859Z,23.9
2019-03-27T04:25:03.480Z,24.1
2019-03-27T04:26:20.266Z,24.6
2019-03-27T04:26:43.164Z,25.1
2019-03-27T04:27:33.726Z,25.3
2019-03-27T04:28:23.585Z,25.5
2019-03-27T04:29:13.873Z,25.8
2019-03-27T04:30:03.599Z,26
2019-03-27T04:30:54.072Z,26.3
2019-03-27T04:31:43.976Z,26.6
2019-03-27T04:32:33.884Z,26.9
2019-03-27T04:33:23.836Z,27.1
2019-03-27T04:34:13.412Z,27.4
2019-03-27T04:35:03.513Z,27.6
2019-03-27T04:35:54.646Z,27.8
2019-03-27T04:36:44.104Z,28
2019-03-27T04:37:34.409Z,28.1
2019-03-27T04:38:24.468Z,28.3
2019-03-27T04:39:13.696Z,28.5
2019-03-27T04:40:04.262Z,28.5
2019-03-27T04:40:54.114Z,28.4
2019-03-27T04:41:43.849Z,28.3
2019-03-27T04:42:33.956Z,28.3
2019-03-27T04:43:25.111Z,28.1
2019-03-27T04:44:15.211Z,28
2019-03-27T04:45:04.948Z,27.9
2019-03-27T04:45:54.486Z,27.8
2019-03-27T04:46:44.855Z,27.7
2019-03-27T04:47:42.074Z,27.6
2019-03-27T04:48:24.921Z,27.2
2019-03-27T04:49:17.537Z,26.3
2019-03-27T04:50:05.315Z,25.8
2019-03-27T04:50:55.782Z,25.6
2019-03-27T04:51:45.115Z,25.4
2019-03-27T04:52:34.823Z,25.2
2019-03-27T04:53:25.466Z,25.1
2019-03-27T04:54:14.948Z,25
2019-03-27T04:55:05.650Z,24.9
2019-03-27T04:55:55.335Z,24.8
2019-03-27T04:56:45.975Z,24.7
2019-03-27T04:57:35.790Z,24.6
2019-03-27T04:58:26.202Z,24.6
2019-03-27T04:59:15.678Z,24.6
2019-03-27T05:00:05.659Z,24.6
2019-03-27T05:00:56.141Z,24.6
2019-03-27T05:01:44.835Z,24.5
2019-03-27T05:02:35.942Z,24.4
2019-03-27T05:03:25.387Z,24.3
2019-03-27T05:04:16.580Z,24.2
2019-03-27T05:05:06.230Z,24.1
2019-03-27T05:05:55.377Z,24.1
2019-03-27T05:06:46.224Z,23.9
2019-03-27T05:07:36.197Z,23.9
2019-03-27T05:08:25.227Z,23.8
2019-03-27T05:09:16.968Z,23.8
2019-03-27T05:10:06.754Z,23.9
2019-03-27T05:10:55.989Z,23.9
2019-03-27T05:11:46.530Z,23.9
2019-03-27T05:12:40.307Z,23.8
2019-03-27T05:13:26.072Z,23.8
2019-03-27T05:14:16.664Z,23.7
2019-03-27T05:15:06.446Z,23.6
2019-03-27T05:15:57.151Z,23.6
2019-03-27T05:16:46.051Z,23.4
2019-03-27T05:17:50.919Z,23.4
2019-03-27T05:18:26.691Z,23.4
2019-03-27T05:19:16.806Z,23.6
2019-03-27T05:20:07.082Z,23.8
2019-03-27T05:20:55.533Z,24.2
2019-03-27T05:21:47.486Z,24.8
2019-03-27T05:22:36.843Z,25
2019-03-27T05:23:27.718Z,25.3
2019-03-27T05:24:17.665Z,25.6
2019-03-27T05:25:07.550Z,25.8
2019-03-27T05:25:57.521Z,26.1
2019-03-27T05:26:47.561Z,26.4
2019-03-27T05:27:41.303Z,26.7
2019-03-27T05:28:28.248Z,27
2019-03-27T05:29:17.761Z,27.2
2019-03-27T05:30:07.500Z,27.4
2019-03-27T05:30:58.469Z,27.7
2019-03-27T05:31:47.407Z,27.9
2019-03-27T05:32:38.265Z,28.1
2019-03-27T05:33:28.605Z,28.3
2019-03-27T05:34:18.395Z,28.5
2019-03-27T05:35:08.100Z,28.5
2019-03-27T05:35:58.313Z,28.4
2019-03-27T05:36:48.323Z,28.4
2019-03-27T05:37:38.940Z,28.3
2019-03-27T05:38:27.365Z,28.1
2019-03-27T05:39:22.105Z,28
2019-03-27T05:40:08.110Z,27.9
2019-03-27T05:40:58.615Z,27.8
2019-03-27T05:41:48.947Z,27.7
2019-03-27T05:42:39.072Z,27.6
2019-03-27T05:43:29.382Z,27.4
2019-03-27T05:44:18.918Z,27.3
2019-03-27T05:45:08.539Z,27.3
2019-03-27T05:45:58.414Z,27.1
2019-03-27T05:46:49.147Z,27
2019-03-27T05:47:38.579Z,26.9
2019-03-27T05:48:29.509Z,26.8
2019-03-27T05:49:19.508Z,26.8
2019-03-27T05:50:09.544Z,26.6
2019-03-27T05:50:59.348Z,26.6
2019-03-27T05:51:48.911Z,26.5
2019-03-27T05:52:39.460Z,26.4
2019-03-27T05:53:29.774Z,26.3
2019-03-27T05:54:19.277Z,26.2
2019-03-27T05:55:08.824Z,26.1
2019-03-27T05:55:59.191Z,26
2019-03-27T05:56:50.114Z,25.9
2019-03-27T05:57:40.352Z,25.8
2019-03-27T05:58:30.494Z,25.8
2019-03-27T05:59:20.507Z,25.7
2019-03-27T06:00:10.147Z,25.6
2019-03-27T06:01:00.071Z,25.5
2019-03-27T06:01:50.181Z,25.4
2019-03-27T06:02:39.634Z,25.3
2019-03-27T06:05:27.668Z,25
2019-03-27T06:06:17.757Z,24.9
2019-03-27T06:07:07.530Z,24.8
2019-03-27T06:07:58.156Z,24.8
2019-03-27T06:08:46.846Z,24.7
2019-03-27T06:09:37.816Z,24.6
2019-03-27T06:10:27.530Z,24.5
2019-03-27T06:11:17.327Z,24.4
2019-03-27T06:12:07.661Z,24.3
2019-03-27T06:12:58.558Z,24.3
2019-03-27T06:13:48.391Z,24.2
2019-03-27T06:14:37.550Z,24.1
2019-03-27T06:15:27.828Z,24
2019-03-27T06:16:47.861Z,23.9
2019-03-27T06:17:08.373Z,23.8
2019-03-27T06:18:12.137Z,23.8
2019-03-27T06:18:48.128Z,23.7
2019-03-27T06:19:38.982Z,23.6
2019-03-27T06:20:28.815Z,23.4
2019-03-27T06:21:18.262Z,23.5
2019-03-27T06:22:08.326Z,23.8
2019-03-27T06:22:57.872Z,24.5
2019-03-27T06:23:49.380Z,24.8
2019-03-27T06:24:38.785Z,25.1
2019-03-27T06:25:29.051Z,25.3
2019-03-27T06:26:17.195Z,25.6
2019-03-27T06:27:07.967Z,25.9
2019-03-27T06:27:58.417Z,26.3
2019-03-27T06:28:48.880Z,26.6
2019-03-27T06:29:39.408Z,26.8
2019-03-27T06:30:29.813Z,26.8
2019-03-27T06:31:18.847Z,26.8
2019-03-27T06:32:08.840Z,26.7
2019-03-27T06:32:59.367Z,26.6
2019-03-27T06:33:49.382Z,26.5
2019-03-27T06:34:54.197Z,26.4
2019-03-27T06:35:29.344Z,26.3
2019-03-27T06:36:19.427Z,26.2
2019-03-27T06:37:09.473Z,26.1
2019-03-27T06:38:00.039Z,26
2019-03-27T06:38:49.507Z,25.9
2019-03-27T06:39:40.132Z,25.8
2019-03-27T06:40:29.755Z,25.7
2019-03-27T06:41:20.104Z,25.6
2019-03-27T06:42:08.767Z,25.6
2019-03-27T06:43:00.221Z,25.4
2019-03-27T06:43:49.676Z,25.4
2019-03-27T06:44:39.466Z,25.3
2019-03-27T06:45:30.546Z,25.2
2019-03-27T06:46:19.023Z,25.1
2019-03-27T06:47:11.024Z,25.1
2019-03-27T06:48:00.044Z,24.9
2019-03-27T06:48:50.319Z,24.9
2019-03-27T06:49:40.729Z,24.8
2019-03-27T06:50:30.771Z,24.7
2019-03-27T06:51:20.936Z,24.6
2019-03-27T06:52:10.533Z,24.6
2019-03-27T06:53:00.814Z,24.5
2019-03-27T06:53:49.826Z,24.4
2019-03-27T06:54:40.984Z,24.3
2019-03-27T06:55:31.063Z,24.3
2019-03-27T06:56:20.085Z,24.2
2019-03-27T06:57:11.039Z,24.1
2019-03-27T06:58:01.753Z,24
2019-03-27T06:59:04.333Z,23.9
2019-03-27T06:59:41.005Z,23.9
2019-03-27T07:00:31.114Z,23.8
2019-03-27T07:01:21.981Z,23.7
2019-03-27T07:02:11.870Z,23.6
2019-03-27T07:03:01.882Z,23.6
2019-03-27T07:06:04.058Z,23.4
2019-03-27T07:07:06.007Z,23.4
2019-03-27T07:07:20.605Z,23.7
2019-03-27T07:08:10.167Z,23.8
2019-03-27T07:09:00.980Z,24.5
2019-03-27T07:09:51.590Z,25.4
2019-03-27T07:10:39.348Z,26.3
2019-03-27T07:11:29.880Z,27
2019-03-27T07:12:30.476Z,27.3
2019-03-27T07:13:10.346Z,27.3
2019-03-27T07:14:01.112Z,27.3
2019-03-27T07:14:50.957Z,27.3
2019-03-27T07:15:44.315Z,27.2
2019-03-27T07:16:29.697Z,27.1
2019-03-27T07:17:21.380Z,27
2019-03-27T07:18:11.385Z,26.9
2019-03-27T07:19:02.414Z,26.8
2019-03-27T07:20:06.607Z,26.7
2019-03-27T07:20:55.687Z,26.5
2019-03-27T07:21:31.913Z,26.4
2019-03-27T07:22:21.869Z,26.3
2019-03-27T07:23:12.040Z,26.3
2019-03-27T07:24:01.534Z,26.1
2019-03-27T07:24:51.367Z,26
2019-03-27T07:25:41.442Z,25.9
2019-03-27T07:26:31.430Z,25.9
2019-03-27T07:27:21.752Z,25.8
2019-03-27T07:28:11.624Z,25.6
2019-03-27T07:29:01.371Z,25.6
2019-03-27T07:29:51.991Z,25.4
2019-03-27T07:30:42.029Z,25.4
2019-03-27T07:31:32.682Z,25.3
2019-03-27T07:32:22.157Z,25.2
2019-03-27T07:33:12.236Z,25.1
2019-03-27T07:34:16.903Z,25.1
2019-03-27T07:34:52.421Z,24.9
2019-03-27T07:35:42.392Z,24.8
2019-03-27T07:36:32.533Z,24.8
2019-03-27T07:37:22.258Z,24.7
2019-03-27T07:38:12.273Z,24.6
2019-03-27T07:39:17.578Z,24.5
2019-03-27T07:39:52.048Z,24.4
2019-03-27T07:40:43.306Z,24.3
2019-03-27T07:41:32.458Z,24.3
2019-03-27T07:42:23.146Z,24.2
2019-03-27T07:43:13.481Z,24.1
2019-03-27T07:44:02.418Z,24
2019-03-27T07:44:53.328Z,23.9
2019-03-27T07:45:43.080Z,23.8
2019-03-27T07:46:32.400Z,23.8
2019-03-27T07:47:22.440Z,23.6
2019-03-27T07:48:13.356Z,23.6
2019-03-27T07:49:03.546Z,23.6
2019-03-27T07:49:53.195Z,23.8
2019-03-27T07:50:43.385Z,24.5
2019-03-27T07:51:33.288Z,25.3
2019-03-27T07:52:23.415Z,26.1
2019-03-27T07:53:13.627Z,26.5
2019-03-27T07:54:03.235Z,26.3
2019-03-27T07:54:53.595Z,26.2
2019-03-27T07:55:44.187Z,26.1
2019-03-27T07:56:34.475Z,26
2019-03-27T07:57:24.232Z,25.9
2019-03-27T07:58:14.577Z,25.8
2019-03-27T07:59:07.210Z,25.7
2019-03-27T07:59:53.325Z,25.6
2019-03-27T08:00:44.845Z,25.6
2019-03-27T08:01:34.526Z,25.4
2019-03-27T08:02:24.638Z,25.3
2019-03-27T08:03:14.447Z,25.3
2019-03-27T08:04:04.238Z,25.1
2019-03-27T08:04:53.094Z,25.1
2019-03-27T08:05:44.525Z,25
2019-03-27T08:06:34.560Z,24.9
2019-03-27T08:07:36.348Z,24.8
2019-03-27T08:08:14.753Z,24.7
2019-03-27T08:09:04.526Z,24.6
2019-03-27T08:09:55.474Z,24.6
2019-03-27T08:10:44.067Z,24.4
2019-03-27T08:11:38.707Z,24.4
2019-03-27T08:12:25.338Z,24.3
2019-03-27T08:13:14.403Z,24.3
2019-03-27T08:14:04.645Z,24.1
2019-03-27T08:14:55.337Z,24.1
2019-03-27T08:15:48.946Z,24
2019-03-27T08:16:34.598Z,23.9
2019-03-27T08:17:24.617Z,23.8
2019-03-27T08:18:13.925Z,23.8
2019-03-27T08:19:16.742Z,23.7
2019-03-27T08:19:55.100Z,23.6
2019-03-27T08:20:45.463Z,23.6
2019-03-27T08:21:39.822Z,23.4
2019-03-27T08:22:24.945Z,23.4
2019-03-27T08:23:15.525Z,23.3
2019-03-27T08:24:06.457Z,23.3
2019-03-27T08:24:54.887Z,23.6
2019-03-27T08:25:45.752Z,24.1
2019-03-27T08:26:35.309Z,24.8
2019-03-27T08:27:26.442Z,25.7
2019-03-27T08:28:16.267Z,26.6
2019-03-27T08:29:06.341Z,27.2
2019-03-27T08:29:55.827Z,27.4
2019-03-27T08:30:46.432Z,27.4
2019-03-27T08:31:36.127Z,27.4
2019-03-27T08:32:27.099Z,27.3
2019-03-27T08:33:16.791Z,27.3
2019-03-27T08:34:06.904Z,27.1
2019-03-27T08:34:56.391Z,27.1
2019-03-27T08:35:46.416Z,26.9
2019-03-27T08:36:37.184Z,26.9
2019-03-27T08:37:26.594Z,26.8
2019-03-27T08:38:20.114Z,26.6
2019-03-27T08:39:06.939Z,26.5
2019-03-27T08:39:56.811Z,26.4
2019-03-27T08:40:47.162Z,26.3
2019-03-27T08:41:37.696Z,26.2
2019-03-27T08:42:26.934Z,26.1
2019-03-27T08:43:33.448Z,26
2019-03-27T08:44:07.129Z,25.9
2019-03-27T08:44:57.683Z,25.8
2019-03-27T08:45:47.991Z,25.8
2019-03-27T08:46:37.923Z,25.6
2019-03-27T08:47:27.579Z,25.6
2019-03-27T08:48:16.331Z,25.4
2019-03-27T08:49:23.174Z,25.4
2019-03-27T08:50:12.189Z,25.2
2019-03-27T08:50:48.133Z,25.1
2019-03-27T08:51:38.134Z,25.1
2019-03-27T08:52:26.715Z,25
2019-03-27T08:53:17.577Z,24.9
2019-03-27T08:54:07.851Z,24.8
2019-03-27T08:54:58.665Z,24.7
2019-03-27T08:55:48.703Z,24.6
2019-03-27T08:56:38.533Z,24.6
2019-03-27T08:57:28.034Z,24.5
2019-03-27T08:58:18.881Z,24.4
2019-03-27T08:59:07.884Z,24.3
2019-03-27T08:59:58.233Z,24.2
2019-03-27T09:00:48.054Z,24.1
2019-03-27T09:01:37.147Z,24.1
2019-03-27T09:02:28.220Z,23.9
2019-03-27T09:03:18.290Z,23.9
2019-03-27T09:04:08.286Z,23.8
2019-03-27T09:04:58.668Z,23.8
2019-03-27T09:05:48.133Z,23.6
2019-03-27T09:06:42.531Z,23.7
2019-03-27T09:07:28.558Z,24.2
2019-03-27T09:08:18.955Z,24.8
2019-03-27T09:09:23.610Z,25.7
2019-03-27T09:09:58.498Z,26.8
2019-03-27T09:10:48.842Z,27.3
2019-03-27T09:11:38.059Z,27.4
2019-03-27T09:12:29.191Z,27.5
2019-03-27T09:13:17.571Z,27.4
2019-03-27T09:14:09.803Z,27.4
2019-03-27T09:14:59.815Z,27.3
2019-03-27T09:15:49.440Z,27.3
2019-03-27T09:16:39.200Z,27.1
2019-03-27T09:17:29.488Z,27
2019-03-27T09:18:23.526Z,26.9
2019-03-27T09:19:10.405Z,26.8
2019-03-27T09:20:00.416Z,26.7
2019-03-27T09:20:50.035Z,26.6
2019-03-27T09:21:39.830Z,26.5
2019-03-27T09:22:29.915Z,26.4
2019-03-27T09:23:20.943Z,26.3
2019-03-27T09:24:10.537Z,26.2
2019-03-27T09:24:59.263Z,26.1
2019-03-27T09:25:50.054Z,26
2019-03-27T09:26:40.898Z,25.9
2019-03-27T09:27:45.340Z,25.8
2019-03-27T09:28:20.853Z,25.6
2019-03-27T09:29:13.927Z,25.6
2019-03-27T09:30:00.876Z,25.5
2019-03-27T09:30:51.671Z,25.4
2019-03-27T09:31:54.105Z,25.3
2019-03-27T09:33:20.959Z,25.1
2019-03-27T09:34:10.688Z,25.1
2019-03-27T09:35:01.007Z,24.9
2019-03-27T09:35:52.395Z,24.9
2019-03-27T09:36:41.827Z,24.8
2019-03-27T09:37:31.763Z,24.7
2019-03-27T09:38:22.027Z,24.6
2019-03-27T09:39:11.739Z,24.5
2019-03-27T09:40:01.843Z,24.4
2019-03-27T09:40:50.849Z,24.4
2019-03-27T09:41:41.222Z,24.3
2019-03-27T09:42:31.374Z,24.2
2019-03-27T09:43:20.844Z,24.1
2019-03-27T09:44:11.781Z,24
2019-03-27T09:45:02.341Z,23.9
2019-03-27T09:45:51.806Z,23.9
2019-03-27T09:46:41.089Z,23.8
2019-03-27T09:47:35.062Z,23.6
2019-03-27T09:48:22.044Z,23.6
2019-03-27T09:49:12.556Z,23.9
2019-03-27T09:50:01.787Z,24.6
2019-03-27T09:50:52.136Z,25.5
2019-03-27T09:51:42.004Z,26.4
2019-03-27T09:52:32.594Z,27.2
2019-03-27T09:53:22.574Z,27.4
2019-03-27T09:54:12.413Z,27.4
2019-03-27T09:55:02.348Z,27.4
2019-03-27T09:55:51.676Z,27.4
2019-03-27T09:56:42.264Z,27.3
2019-03-27T09:57:32.551Z,27.2
2019-03-27T09:58:23.235Z,27.1
2019-03-27T09:59:14.900Z,26.9
2019-03-27T10:00:02.398Z,26.9
2019-03-27T10:00:53.870Z,26.8
2019-03-27T10:01:42.743Z,26.7
2019-03-27T10:02:33.227Z,26.6
2019-03-27T10:03:22.778Z,26.4
2019-03-27T10:04:12.807Z,26.4
2019-03-27T10:06:27.827Z,26.1
2019-03-27T10:07:31.605Z,25.9
2019-03-27T10:08:07.355Z,25.9
2019-03-27T10:08:57.200Z,25.8
2019-03-27T10:09:51.265Z,25.7
2019-03-27T10:10:37.902Z,25.6
2019-03-27T10:12:17.358Z,25.4
2019-03-27T10:13:07.677Z,25.3
2019-03-27T10:13:57.465Z,25.3
2019-03-27T10:14:51.622Z,25.1
2019-03-27T10:15:37.355Z,25.1
2019-03-27T10:16:28.385Z,24.9
2019-03-27T10:17:17.585Z,24.9
2019-03-27T10:18:07.562Z,24.8
2019-03-27T10:18:58.739Z,24.7
2019-03-27T10:19:47.650Z,24.6
2019-03-27T10:20:38.817Z,24.5
2019-03-27T10:21:27.762Z,24.4
2019-03-27T10:22:17.668Z,24.4
2019-03-27T10:23:09.112Z,24.3
2019-03-27T10:23:58.767Z,24.2
2019-03-27T10:24:47.099Z,24.1
2019-03-27T10:25:38.111Z,24.1
2019-03-27T10:26:28.562Z,23.9
2019-03-27T10:27:18.312Z,23.9
2019-03-27T10:28:07.889Z,23.8
2019-03-27T10:28:59.124Z,23.8
2019-03-27T10:29:49.261Z,23.6
2019-03-27T10:30:37.886Z,23.6
2019-03-27T10:31:29.583Z,23.9
2019-03-27T10:32:19.151Z,24.6
2019-03-27T10:33:09.052Z,25.4
2019-03-27T10:33:59.626Z,26.3
2019-03-27T10:34:48.529Z,25.9
2019-03-27T10:35:38.099Z,25.6
2019-03-27T10:36:29.443Z,25.5
2019-03-27T10:37:19.213Z,25.4
2019-03-27T10:38:08.437Z,25.3
2019-03-27T10:38:58.258Z,25.2
2019-03-27T10:39:49.734Z,25.1
2019-03-27T10:40:38.514Z,25
2019-03-27T10:41:28.951Z,24.9
2019-03-27T10:42:19.586Z,24.8
2019-03-27T10:43:09.126Z,24.8
2019-03-27T10:43:59.931Z,24.7
2019-03-27T10:44:49.563Z,24.6
2019-03-27T10:45:39.689Z,24.5
2019-03-27T10:46:29.135Z,24.4
2019-03-27T10:47:19.649Z,24.3
2019-03-27T10:48:09.793Z,24.3
2019-03-27T10:49:02.168Z,24.2
2019-03-27T10:49:50.491Z,24.1
2019-03-27T10:50:40.296Z,24.1
2019-03-27T10:51:29.779Z,23.9
2019-03-27T10:52:20.232Z,23.9
2019-03-27T10:53:10.338Z,23.8
2019-03-27T10:53:59.646Z,23.8
2019-03-27T10:54:50.845Z,23.7
2019-03-27T10:55:43.130Z,23.6
2019-03-27T10:56:30.572Z,23.6
2019-03-27T10:57:21.530Z,23.5
2019-03-27T10:58:11.496Z,23.4
2019-03-27T10:59:01.540Z,23.3
2019-03-27T10:59:51.489Z,23.3
2019-03-27T11:00:40.631Z,23.2
2019-03-27T11:01:31.779Z,23.1
2019-03-27T11:02:21.870Z,23.1
2019-03-27T11:03:11.322Z,23.2
2019-03-27T11:04:02.055Z,23.6
2019-03-27T11:04:51.769Z,24.4
2019-03-27T11:05:42.027Z,25.3
2019-03-27T11:06:31.897Z,26.3
2019-03-27T11:07:22.007Z,27.1
2019-03-27T11:08:15.740Z,27.5
2019-03-27T11:09:02.094Z,27.6
2019-03-27T11:09:51.376Z,27.6
2019-03-27T11:10:41.353Z,27.5
2019-03-27T11:11:30.859Z,27.4
2019-03-27T11:12:21.759Z,27.3
2019-03-27T11:13:12.051Z,27.2
2019-03-27T11:14:01.789Z,27.1
2019-03-27T11:14:51.593Z,27
2019-03-27T11:15:42.218Z,26.9
2019-03-27T11:16:31.789Z,26.8
2019-03-27T11:17:21.260Z,26.7
2019-03-27T11:18:12.381Z,26.6
2019-03-27T11:19:02.165Z,26.5
2019-03-27T11:19:52.498Z,26.4
2019-03-27T11:20:42.351Z,26.3